sensor_id;sensor_type;location;lat;lon;timestamp;temperature;humidity
1678;DHT22;6034;46.864;15.216;2023-07-28T04:42:53;18.50;99.90
1678;DHT22;6034;46.864;15.216;2023-07-28T04:45:21;18.60;99.90
1678;DHT22;6034;46.864;15.216;2023-07-28T04:47:48;18.80;99.90
1678;DHT22;6034;46.864;15.216;2023-07-28T04:50:15;19.10;99.90
1678;DHT22;6034;46.864;15.216;2023-07-28T04:52:42;19.10;99.90
1678;DHT22;6034;46.864;15.216;2023-07-28T04:55:09;19.10;99.90
1678;DHT22;6034;46.864;15.216;2023-07-28T04:57:36;19.20;99.90
1678;DHT22;6034;46.864;15.216;2023-07-28T05:00:06;19.40;99.90
1678;DHT22;6034;46.864;15.216;2023-07-28T05:02:34;19.40;99.90
1678;DHT22;6034;46.864;15.216;2023-07-28T05:05:01;19.10;99.90
1678;DHT22;6034;46.864;15.216;2023-07-28T05:07:28;19.10;99.90
1678;DHT22;6034;46.864;15.216;2023-07-28T05:09:55;19.30;99.90
1678;DHT22;6034;46.864;15.216;2023-07-28T05:12:23;19.50;99.90
1678;DHT22;6034;46.864;15.216;2023-07-28T05:14:50;19.60;99.90
1678;DHT22;6034;46.864;15.216;2023-07-28T05:17:18;19.60;99.90
1678;DHT22;6034;46.864;15.216;2023-07-28T05:19:46;19.70;99.90
1678;DHT22;6034;46.864;15.216;2023-07-28T05:22:13;19.80;99.90
1678;DHT22;6034;46.864;15.216;2023-07-28T05:24:40;20.00;99.90
1678;DHT22;6034;46.864;15.216;2023-07-28T05:27:07;20.00;99.90
1678;DHT22;6034;46.864;15.216;2023-07-28T05:29:34;20.20;99.90
1678;DHT22;6034;46.864;15.216;2023-07-28T05:32:02;20.40;99.90
1678;DHT22;6034;46.864;15.216;2023-07-28T05:34:32;20.40;99.90
1678;DHT22;6034;46.864;15.216;2023-07-28T05:36:59;20.50;99.90
1678;DHT22;6034;46.864;15.216;2023-07-28T05:39:27;20.60;99.90
1678;DHT22;6034;46.864;15.216;2023-07-28T05:41:54;20.60;99.90
1678;DHT22;6034;46.864;15.216;2023-07-28T05:44:21;20.70;99.90
1678;DHT22;6034;46.864;15.216;2023-07-28T05:46:48;20.80;99.90
1678;DHT22;6034;46.864;15.216;2023-07-28T05:49:16;20.90;99.90
1678;DHT22;6034;46.864;15.216;2023-07-28T05:51:44;20.90;99.90
1678;DHT22;6034;46.864;15.216;2023-07-28T05:54:12;21.00;99.90
1678;DHT22;6034;46.864;15.216;2023-07-28T05:56:40;20.70;99.90
1678;DHT22;6034;46.864;15.216;2023-07-28T05:59:07;20.40;99.90
1678;DHT22;6034;46.864;15.216;2023-07-28T06:01:35;20.60;99.90
1678;DHT22;6034;46.864;15.216;2023-07-28T06:04:02;20.70;99.90
1678;DHT22;6034;46.864;15.216;2023-07-28T06:06:30;20.50;99.90
1678;DHT22;6034;46.864;15.216;2023-07-28T06:08:59;20.20;99.90
1678;DHT22;6034;46.864;15.216;2023-07-28T06:11:26;20.60;99.90
1678;DHT22;6034;46.864;15.216;2023-07-28T06:13:54;20.70;99.90
1678;DHT22;6034;46.864;15.216;2023-07-28T06:16:21;20.60;99.90
1678;DHT22;6034;46.864;15.216;2023-07-28T06:18:50;20.30;99.90
1678;DHT22;6034;46.864;15.216;2023-07-28T06:21:17;19.80;99.90
1678;DHT22;6034;46.864;15.216;2023-07-28T06:23:44;20.00;99.90
1678;DHT22;6034;46.864;15.216;2023-07-28T06:26:13;20.10;99.90
1678;DHT22;6034;46.864;15.216;2023-07-28T06:28:41;20.40;99.90
1678;DHT22;6034;46.864;15.216;2023-07-28T06:31:08;20.70;99.90
1678;DHT22;6034;46.864;15.216;2023-07-28T06:33:36;21.10;99.90
1678;DHT22;6034;46.864;15.216;2023-07-28T06:36:03;21.40;99.90
1678;DHT22;6034;46.864;15.216;2023-07-28T06:38:32;21.30;99.90
1678;DHT22;6034;46.864;15.216;2023-07-28T06:40:59;21.50;99.90
1678;DHT22;6034;46.864;15.216;2023-07-28T06:43:28;21.80;99.90
1678;DHT22;6034;46.864;15.216;2023-07-28T06:45:56;21.90;99.90
1678;DHT22;6034;46.864;15.216;2023-07-28T06:48:23;21.60;99.90
1678;DHT22;6034;46.864;15.216;2023-07-28T06:50:50;21.70;99.90
1678;DHT22;6034;46.864;15.216;2023-07-28T06:53:17;21.90;99.90
1678;DHT22;6034;46.864;15.216;2023-07-28T06:55:45;21.80;99.90
1678;DHT22;6034;46.864;15.216;2023-07-28T06:58:12;21.40;99.90
1678;DHT22;6034;46.864;15.216;2023-07-28T07:00:40;21.50;99.90
1678;DHT22;6034;46.864;15.216;2023-07-28T07:03:10;21.10;99.90
1678;DHT22;6034;46.864;15.216;2023-07-28T07:05:37;21.40;99.90
1678;DHT22;6034;46.864;15.216;2023-07-28T07:08:05;20.90;99.90
1678;DHT22;6034;46.864;15.216;2023-07-28T07:10:32;21.00;99.90
1678;DHT22;6034;46.864;15.216;2023-07-28T07:12:59;21.00;99.90
1678;DHT22;6034;46.864;15.216;2023-07-28T07:15:26;21.10;99.90
1678;DHT22;6034;46.864;15.216;2023-07-28T07:17:55;21.30;99.90
1678;DHT22;6034;46.864;15.216;2023-07-28T07:20:23;21.50;99.90
1678;DHT22;6034;46.864;15.216;2023-07-28T07:22:50;21.70;99.90
1678;DHT22;6034;46.864;15.216;2023-07-28T07:25:17;21.70;99.90
1678;DHT22;6034;46.864;15.216;2023-07-28T07:27:44;22.00;99.90
1678;DHT22;6034;46.864;15.216;2023-07-28T07:30:12;22.20;99.90
1678;DHT22;6034;46.864;15.216;2023-07-28T07:32:39;22.50;99.90
1678;DHT22;6034;46.864;15.216;2023-07-28T07:35:09;22.60;99.90
1678;DHT22;6034;46.864;15.216;2023-07-28T07:37:36;22.60;99.90
1678;DHT22;6034;46.864;15.216;2023-07-28T07:40:05;22.40;99.90
1678;DHT22;6034;46.864;15.216;2023-07-28T07:42:41;22.70;99.90
1678;DHT22;6034;46.864;15.216;2023-07-28T07:45:10;22.90;99.90
1678;DHT22;6034;46.864;15.216;2023-07-28T07:47:37;22.30;99.90
1678;DHT22;6034;46.864;15.216;2023-07-28T07:50:06;22.30;99.90
1678;DHT22;6034;46.864;15.216;2023-07-28T07:52:36;22.80;99.90
1678;DHT22;6034;46.864;15.216;2023-07-28T07:55:04;23.00;99.90
1678;DHT22;6034;46.864;15.216;2023-07-28T07:57:31;23.20;99.90
1678;DHT22;6034;46.864;15.216;2023-07-28T07:59:59;23.50;99.90
1678;DHT22;6034;46.864;15.216;2023-07-28T08:02:26;23.20;99.90
1678;DHT22;6034;46.864;15.216;2023-07-28T08:04:53;23.30;99.90
1678;DHT22;6034;46.864;15.216;2023-07-28T08:07:21;23.50;99.90
1678;DHT22;6034;46.864;15.216;2023-07-28T08:09:50;23.50;99.90
1678;DHT22;6034;46.864;15.216;2023-07-28T08:12:17;23.60;99.90
1678;DHT22;6034;46.864;15.216;2023-07-28T08:14:45;23.30;99.90
1678;DHT22;6034;46.864;15.216;2023-07-28T08:17:12;23.30;99.90
1678;DHT22;6034;46.864;15.216;2023-07-28T08:19:39;23.60;99.90
1678;DHT22;6034;46.864;15.216;2023-07-28T08:22:07;24.00;99.90
1678;DHT22;6034;46.864;15.216;2023-07-28T08:24:35;24.20;99.90
1678;DHT22;6034;46.864;15.216;2023-07-28T08:27:04;23.90;99.90
1678;DHT22;6034;46.864;15.216;2023-07-28T08:29:31;24.20;99.90
1678;DHT22;6034;46.864;15.216;2023-07-28T08:31:58;24.40;99.90
1678;DHT22;6034;46.864;15.216;2023-07-28T08:34:26;24.20;99.90
1678;DHT22;6034;46.864;15.216;2023-07-28T08:36:53;23.80;99.90
1678;DHT22;6034;46.864;15.216;2023-07-28T08:39:20;23.30;99.90
1678;DHT22;6034;46.864;15.216;2023-07-28T08:41:58;22.80;99.90
1678;DHT22;6034;46.864;15.216;2023-07-28T08:44:30;22.90;99.90
1678;DHT22;6034;46.864;15.216;2023-07-28T08:46:59;23.10;99.90
1678;DHT22;6034;46.864;15.216;2023-07-28T08:49:27;23.40;99.90
1678;DHT22;6034;46.864;15.216;2023-07-28T08:51:58;23.80;99.90
1678;DHT22;6034;46.864;15.216;2023-07-28T08:54:26;23.90;99.90
1678;DHT22;6034;46.864;15.216;2023-07-28T08:56:53;24.10;99.90
1678;DHT22;6034;46.864;15.216;2023-07-28T08:59:21;24.00;99.90
1678;DHT22;6034;46.864;15.216;2023-07-28T09:01:53;24.20;99.90
1678;DHT22;6034;46.864;15.216;2023-07-28T09:04:21;24.40;99.90
1678;DHT22;6034;46.864;15.216;2023-07-28T09:06:48;24.00;99.90
1678;DHT22;6034;46.864;15.216;2023-07-28T09:09:17;24.00;99.90
1678;DHT22;6034;46.864;15.216;2023-07-28T09:11:45;24.20;99.90
1678;DHT22;6034;46.864;15.216;2023-07-28T09:14:13;24.30;99.90
1678;DHT22;6034;46.864;15.216;2023-07-28T09:16:41;24.70;99.90
1678;DHT22;6034;46.864;15.216;2023-07-28T09:19:11;24.50;99.90
1678;DHT22;6034;46.864;15.216;2023-07-28T09:21:41;24.30;99.90
1678;DHT22;6034;46.864;15.216;2023-07-28T09:24:10;24.40;99.90
1678;DHT22;6034;46.864;15.216;2023-07-28T09:26:38;24.50;99.90
1678;DHT22;6034;46.864;15.216;2023-07-28T09:29:13;24.70;99.90
1678;DHT22;6034;46.864;15.216;2023-07-28T09:31:41;24.80;99.90
1678;DHT22;6034;46.864;15.216;2023-07-28T09:34:10;24.80;99.90
1678;DHT22;6034;46.864;15.216;2023-07-28T09:36:38;24.90;99.90
1678;DHT22;6034;46.864;15.216;2023-07-28T09:39:05;25.00;99.90
1678;DHT22;6034;46.864;15.216;2023-07-28T09:41:35;24.50;99.90
1678;DHT22;6034;46.864;15.216;2023-07-28T09:44:04;24.70;99.90
1678;DHT22;6034;46.864;15.216;2023-07-28T09:46:33;24.90;99.90
1678;DHT22;6034;46.864;15.216;2023-07-28T09:49:04;24.90;99.90
1678;DHT22;6034;46.864;15.216;2023-07-28T09:51:34;24.60;99.90
1678;DHT22;6034;46.864;15.216;2023-07-28T09:54:05;24.70;99.90
1678;DHT22;6034;46.864;15.216;2023-07-28T09:56:33;25.00;99.90
1678;DHT22;6034;46.864;15.216;2023-07-28T09:59:04;25.10;99.90
1678;DHT22;6034;46.864;15.216;2023-07-28T10:01:34;25.00;99.90
1678;DHT22;6034;46.864;15.216;2023-07-28T10:04:02;25.30;99.90
1678;DHT22;6034;46.864;15.216;2023-07-28T10:06:30;25.00;99.90
1678;DHT22;6034;46.864;15.216;2023-07-28T10:08:59;25.30;99.90
1678;DHT22;6034;46.864;15.216;2023-07-28T10:11:27;25.50;99.90
1678;DHT22;6034;46.864;15.216;2023-07-28T10:13:55;25.70;99.90
1678;DHT22;6034;46.864;15.216;2023-07-28T10:16:30;25.90;99.90
1678;DHT22;6034;46.864;15.216;2023-07-28T10:18:59;26.00;99.90
1678;DHT22;6034;46.864;15.216;2023-07-28T10:21:28;26.30;99.90
1678;DHT22;6034;46.864;15.216;2023-07-28T10:23:59;26.20;99.90
1678;DHT22;6034;46.864;15.216;2023-07-28T10:26:35;26.30;99.90
1678;DHT22;6034;46.864;15.216;2023-07-28T10:29:13;25.50;99.90
1678;DHT22;6034;46.864;15.216;2023-07-28T10:31:51;26.00;99.90
1678;DHT22;6034;46.864;15.216;2023-07-28T10:34:19;26.30;99.90
1678;DHT22;6034;46.864;15.216;2023-07-28T10:36:56;26.30;99.90
1678;DHT22;6034;46.864;15.216;2023-07-28T10:39:26;25.70;99.90
1678;DHT22;6034;46.864;15.216;2023-07-28T10:42:05;26.00;99.90
1678;DHT22;6034;46.864;15.216;2023-07-28T10:44:32;26.40;99.90
1678;DHT22;6034;46.864;15.216;2023-07-28T10:47:01;26.50;99.90
1678;DHT22;6034;46.864;15.216;2023-07-28T10:49:28;26.70;99.90
1678;DHT22;6034;46.864;15.216;2023-07-28T10:51:56;26.70;99.90
1678;DHT22;6034;46.864;15.216;2023-07-28T10:54:23;27.00;99.90
1678;DHT22;6034;46.864;15.216;2023-07-28T10:56:52;26.70;99.30
1678;DHT22;6034;46.864;15.216;2023-07-28T10:59:19;26.90;99.90
1678;DHT22;6034;46.864;15.216;2023-07-28T11:01:46;26.80;99.90
1678;DHT22;6034;46.864;15.216;2023-07-28T11:04:15;27.00;99.90
1678;DHT22;6034;46.864;15.216;2023-07-28T11:06:44;27.00;99.90
1678;DHT22;6034;46.864;15.216;2023-07-28T11:09:13;26.50;97.80
1678;DHT22;6034;46.864;15.216;2023-07-28T11:11:42;26.00;97.00
1678;DHT22;6034;46.864;15.216;2023-07-28T11:14:11;26.20;99.90
1678;DHT22;6034;46.864;15.216;2023-07-28T11:16:40;26.80;99.90
1678;DHT22;6034;46.864;15.216;2023-07-28T11:19:09;27.20;99.90
1678;DHT22;6034;46.864;15.216;2023-07-28T11:21:37;27.30;99.90
1678;DHT22;6034;46.864;15.216;2023-07-28T11:24:06;27.30;99.90
1678;DHT22;6034;46.864;15.216;2023-07-28T11:26:35;27.60;99.90
1678;DHT22;6034;46.864;15.216;2023-07-28T11:29:03;27.60;99.90
1678;DHT22;6034;46.864;15.216;2023-07-28T11:31:33;27.70;99.90
1678;DHT22;6034;46.864;15.216;2023-07-28T11:34:01;27.80;99.90
1678;DHT22;6034;46.864;15.216;2023-07-28T11:36:29;27.60;99.90
1678;DHT22;6034;46.864;15.216;2023-07-28T11:38:59;27.80;99.90
1678;DHT22;6034;46.864;15.216;2023-07-28T11:41:27;28.00;99.90
1678;DHT22;6034;46.864;15.216;2023-07-28T11:43:55;28.20;99.90
1678;DHT22;6034;46.864;15.216;2023-07-28T11:46:39;28.10;99.90
1678;DHT22;6034;46.864;15.216;2023-07-28T11:49:10;28.10;99.90
1678;DHT22;6034;46.864;15.216;2023-07-28T11:51:42;28.10;99.90
1678;DHT22;6034;46.864;15.216;2023-07-28T11:54:11;28.20;99.90
1678;DHT22;6034;46.864;15.216;2023-07-28T11:56:40;28.40;99.90
1678;DHT22;6034;46.864;15.216;2023-07-28T11:59:08;28.30;99.90
1678;DHT22;6034;46.864;15.216;2023-07-28T12:01:51;27.80;99.50
1678;DHT22;6034;46.864;15.216;2023-07-28T12:04:25;27.80;99.90
1678;DHT22;6034;46.864;15.216;2023-07-28T12:07:04;28.10;99.90
1678;DHT22;6034;46.864;15.216;2023-07-28T12:09:32;28.10;98.20
1678;DHT22;6034;46.864;15.216;2023-07-28T12:12:00;28.20;99.90
1678;DHT22;6034;46.864;15.216;2023-07-28T12:14:32;28.30;99.90
1678;DHT22;6034;46.864;15.216;2023-07-28T12:17:01;28.50;99.60
1678;DHT22;6034;46.864;15.216;2023-07-28T12:19:29;28.10;99.10
1678;DHT22;6034;46.864;15.216;2023-07-28T12:21:56;27.70;99.40
1678;DHT22;6034;46.864;15.216;2023-07-28T12:24:24;27.50;99.90
1678;DHT22;6034;46.864;15.216;2023-07-28T12:26:51;27.50;99.90
1678;DHT22;6034;46.864;15.216;2023-07-28T12:29:18;27.70;99.90
1678;DHT22;6034;46.864;15.216;2023-07-28T12:31:46;28.00;99.90
1678;DHT22;6034;46.864;15.216;2023-07-28T12:34:14;28.00;99.90
1678;DHT22;6034;46.864;15.216;2023-07-28T12:36:41;27.90;99.90
1678;DHT22;6034;46.864;15.216;2023-07-28T12:39:09;27.90;99.90
1678;DHT22;6034;46.864;15.216;2023-07-28T12:41:36;27.70;99.90
1678;DHT22;6034;46.864;15.216;2023-07-28T12:44:03;27.20;99.90
1678;DHT22;6034;46.864;15.216;2023-07-28T12:46:31;27.40;99.90
1678;DHT22;6034;46.864;15.216;2023-07-28T12:48:58;27.80;99.90
1678;DHT22;6034;46.864;15.216;2023-07-28T12:51:27;27.90;99.90
1678;DHT22;6034;46.864;15.216;2023-07-28T12:53:54;27.90;99.90
1678;DHT22;6034;46.864;15.216;2023-07-28T12:56:21;27.80;99.70
1678;DHT22;6034;46.864;15.216;2023-07-28T12:58:49;27.80;99.90
1678;DHT22;6034;46.864;15.216;2023-07-28T13:01:16;28.00;99.90
1678;DHT22;6034;46.864;15.216;2023-07-28T13:03:43;28.30;99.90
1678;DHT22;6034;46.864;15.216;2023-07-28T13:06:11;28.50;99.90
1678;DHT22;6034;46.864;15.216;2023-07-28T13:08:40;27.90;99.90
1678;DHT22;6034;46.864;15.216;2023-07-28T13:11:07;27.60;99.90
1678;DHT22;6034;46.864;15.216;2023-07-28T13:13:34;27.90;99.90
1678;DHT22;6034;46.864;15.216;2023-07-28T13:16:02;27.70;99.90
1678;DHT22;6034;46.864;15.216;2023-07-28T13:18:29;27.60;99.90
1678;DHT22;6034;46.864;15.216;2023-07-28T13:20:57;27.60;99.90
1678;DHT22;6034;46.864;15.216;2023-07-28T13:23:24;28.00;99.90
1678;DHT22;6034;46.864;15.216;2023-07-28T13:25:53;28.00;99.90
1678;DHT22;6034;46.864;15.216;2023-07-28T13:28:20;27.60;99.90
1678;DHT22;6034;46.864;15.216;2023-07-28T13:30:47;27.90;99.90
1678;DHT22;6034;46.864;15.216;2023-07-28T13:33:15;27.70;99.90
1678;DHT22;6034;46.864;15.216;2023-07-28T13:35:42;27.40;99.90
1678;DHT22;6034;46.864;15.216;2023-07-28T13:38:09;27.80;99.90
1678;DHT22;6034;46.864;15.216;2023-07-28T13:40:37;28.00;99.90
1678;DHT22;6034;46.864;15.216;2023-07-28T13:43:06;27.60;99.90
1678;DHT22;6034;46.864;15.216;2023-07-28T13:45:33;27.20;99.90
1678;DHT22;6034;46.864;15.216;2023-07-28T13:48:00;27.20;99.90
1678;DHT22;6034;46.864;15.216;2023-07-28T13:50:28;27.40;99.90
1678;DHT22;6034;46.864;15.216;2023-07-28T13:52:55;27.50;99.90
1678;DHT22;6034;46.864;15.216;2023-07-28T13:55:22;27.40;99.90
1678;DHT22;6034;46.864;15.216;2023-07-28T13:57:50;27.40;99.90
1678;DHT22;6034;46.864;15.216;2023-07-28T14:00:19;27.60;98.60
1678;DHT22;6034;46.864;15.216;2023-07-28T14:02:46;27.50;98.80
1678;DHT22;6034;46.864;15.216;2023-07-28T14:05:14;27.60;98.60
1678;DHT22;6034;46.864;15.216;2023-07-28T14:07:41;27.60;98.40
1678;DHT22;6034;46.864;15.216;2023-07-28T14:10:09;27.60;97.40
1678;DHT22;6034;46.864;15.216;2023-07-28T14:12:36;27.70;96.30
1678;DHT22;6034;46.864;15.216;2023-07-28T14:15:04;27.80;95.10
1678;DHT22;6034;46.864;15.216;2023-07-28T14:17:34;27.60;94.10
1678;DHT22;6034;46.864;15.216;2023-07-28T14:20:02;27.70;95.60
1678;DHT22;6034;46.864;15.216;2023-07-28T14:22:30;27.60;92.40
1678;DHT22;6034;46.864;15.216;2023-07-28T14:24:58;27.70;94.60
1678;DHT22;6034;46.864;15.216;2023-07-28T14:27:25;27.80;94.20
1678;DHT22;6034;46.864;15.216;2023-07-28T14:29:52;28.00;95.00
1678;DHT22;6034;46.864;15.216;2023-07-28T14:32:20;28.00;94.20
1678;DHT22;6034;46.864;15.216;2023-07-28T14:34:49;28.00;94.50
1678;DHT22;6034;46.864;15.216;2023-07-28T14:37:16;27.80;93.50
1678;DHT22;6034;46.864;15.216;2023-07-28T14:39:43;27.80;93.10
1678;DHT22;6034;46.864;15.216;2023-07-28T14:42:10;27.70;91.70
1678;DHT22;6034;46.864;15.216;2023-07-28T14:44:37;27.80;93.80
1678;DHT22;6034;46.864;15.216;2023-07-28T14:47:05;27.80;94.90
1678;DHT22;6034;46.864;15.216;2023-07-28T14:49:33;27.90;95.90
1678;DHT22;6034;46.864;15.216;2023-07-28T14:52:01;28.00;96.40
1678;DHT22;6034;46.864;15.216;2023-07-28T14:54:29;28.00;96.00
1678;DHT22;6034;46.864;15.216;2023-07-28T14:56:56;28.10;96.20
1678;DHT22;6034;46.864;15.216;2023-07-28T14:59:23;28.10;95.80
1678;DHT22;6034;46.864;15.216;2023-07-28T15:01:51;28.00;95.40
1678;DHT22;6034;46.864;15.216;2023-07-28T15:04:18;27.90;95.90
1678;DHT22;6034;46.864;15.216;2023-07-28T15:06:45;27.90;94.30
1678;DHT22;6034;46.864;15.216;2023-07-28T15:09:14;27.80;94.80
1678;DHT22;6034;46.864;15.216;2023-07-28T15:11:44;27.90;96.20
1678;DHT22;6034;46.864;15.216;2023-07-28T15:14:12;27.90;96.30
1678;DHT22;6034;46.864;15.216;2023-07-28T15:16:39;27.90;96.70
1678;DHT22;6034;46.864;15.216;2023-07-28T15:19:06;27.90;96.20
1678;DHT22;6034;46.864;15.216;2023-07-28T15:21:33;27.90;96.10
1678;DHT22;6034;46.864;15.216;2023-07-28T15:24:01;27.80;96.00
1678;DHT22;6034;46.864;15.216;2023-07-28T15:26:29;27.80;95.00
1678;DHT22;6034;46.864;15.216;2023-07-28T15:28:57;27.70;94.60
1678;DHT22;6034;46.864;15.216;2023-07-28T15:31:26;27.70;94.80
1678;DHT22;6034;46.864;15.216;2023-07-28T15:33:53;27.60;96.20
1678;DHT22;6034;46.864;15.216;2023-07-28T15:36:21;27.60;96.70
1678;DHT22;6034;46.864;15.216;2023-07-28T15:38:48;27.60;95.40
1678;DHT22;6034;46.864;15.216;2023-07-28T15:41:15;27.60;95.30
1678;DHT22;6034;46.864;15.216;2023-07-28T15:43:44;27.50;94.60
1678;DHT22;6034;46.864;15.216;2023-07-28T15:46:11;27.50;92.20
1678;DHT22;6034;46.864;15.216;2023-07-28T15:48:39;27.40;92.30
1678;DHT22;6034;46.864;15.216;2023-07-28T15:51:06;27.40;93.90
1678;DHT22;6034;46.864;15.216;2023-07-28T15:53:33;27.40;94.70
1678;DHT22;6034;46.864;15.216;2023-07-28T15:56:01;27.40;94.10
1678;DHT22;6034;46.864;15.216;2023-07-28T15:58:28;27.40;94.60
1678;DHT22;6034;46.864;15.216;2023-07-28T16:00:57;27.30;94.30
1678;DHT22;6034;46.864;15.216;2023-07-28T16:03:24;27.40;94.90
1678;DHT22;6034;46.864;15.216;2023-07-28T16:05:51;27.30;95.40
1678;DHT22;6034;46.864;15.216;2023-07-28T16:08:19;27.40;95.30
1678;DHT22;6034;46.864;15.216;2023-07-28T16:10:47;27.30;95.10
1678;DHT22;6034;46.864;15.216;2023-07-28T16:13:14;27.30;94.90
1678;DHT22;6034;46.864;15.216;2023-07-28T16:15:41;27.30;94.80
1678;DHT22;6034;46.864;15.216;2023-07-28T16:18:10;27.20;94.50
1678;DHT22;6034;46.864;15.216;2023-07-28T16:20:37;27.20;94.50
1678;DHT22;6034;46.864;15.216;2023-07-28T16:23:05;26.90;94.80
1678;DHT22;6034;46.864;15.216;2023-07-28T16:25:32;26.90;95.70
1678;DHT22;6034;46.864;15.216;2023-07-28T16:28:00;26.90;96.40
1678;DHT22;6034;46.864;15.216;2023-07-28T16:30:27;26.90;95.90
1678;DHT22;6034;46.864;15.216;2023-07-28T16:32:55;26.90;95.60
1678;DHT22;6034;46.864;15.216;2023-07-28T16:35:24;26.90;95.50
1678;DHT22;6034;46.864;15.216;2023-07-28T16:37:51;26.90;95.90
1678;DHT22;6034;46.864;15.216;2023-07-28T16:40:19;26.70;96.50
1678;DHT22;6034;46.864;15.216;2023-07-28T16:42:46;26.80;98.10
1678;DHT22;6034;46.864;15.216;2023-07-28T16:45:14;26.80;98.30
1678;DHT22;6034;46.864;15.216;2023-07-28T16:47:41;26.80;97.80
1678;DHT22;6034;46.864;15.216;2023-07-28T16:50:09;26.70;97.80
1678;DHT22;6034;46.864;15.216;2023-07-28T16:52:38;26.70;97.80
1678;DHT22;6034;46.864;15.216;2023-07-28T16:55:06;26.70;98.30
1678;DHT22;6034;46.864;15.216;2023-07-28T16:57:33;26.70;98.60
1678;DHT22;6034;46.864;15.216;2023-07-28T17:00:00;26.70;98.70
1678;DHT22;6034;46.864;15.216;2023-07-28T17:02:28;26.60;99.20
1678;DHT22;6034;46.864;15.216;2023-07-28T17:04:55;26.60;99.60
1678;DHT22;6034;46.864;15.216;2023-07-28T17:07:22;26.50;99.80
1678;DHT22;6034;46.864;15.216;2023-07-28T17:09:51;26.50;99.90
1678;DHT22;6034;46.864;15.216;2023-07-28T17:12:18;26.50;99.80
1678;DHT22;6034;46.864;15.216;2023-07-28T17:14:46;26.40;99.70
1678;DHT22;6034;46.864;15.216;2023-07-28T17:17:13;26.40;99.90
1678;DHT22;6034;46.864;15.216;2023-07-28T17:19:41;26.20;99.90
1678;DHT22;6034;46.864;15.216;2023-07-28T17:22:08;25.80;99.90
1678;DHT22;6034;46.864;15.216;2023-07-28T17:24:37;25.60;99.90
1678;DHT22;6034;46.864;15.216;2023-07-28T17:27:06;25.60;99.90
1678;DHT22;6034;46.864;15.216;2023-07-28T17:29:34;25.50;99.50
1678;DHT22;6034;46.864;15.216;2023-07-28T17:32:02;25.20;98.20
1678;DHT22;6034;46.864;15.216;2023-07-28T17:34:29;25.00;99.10
1678;DHT22;6034;46.864;15.216;2023-07-28T17:36:57;24.70;99.60
1678;DHT22;6034;46.864;15.216;2023-07-28T17:39:24;24.40;98.80
1678;DHT22;6034;46.864;15.216;2023-07-28T17:41:51;24.10;99.90
1678;DHT22;6034;46.864;15.216;2023-07-28T17:44:20;23.70;99.90
1678;DHT22;6034;46.864;15.216;2023-07-28T17:46:49;23.40;99.90
1678;DHT22;6034;46.864;15.216;2023-07-28T17:49:17;23.30;99.90
1678;DHT22;6034;46.864;15.216;2023-07-28T17:51:44;23.10;99.90
1678;DHT22;6034;46.864;15.216;2023-07-28T17:54:12;22.90;99.90
1678;DHT22;6034;46.864;15.216;2023-07-28T17:56:40;22.70;99.90
1678;DHT22;6034;46.864;15.216;2023-07-28T17:59:07;22.40;99.90
1678;DHT22;6034;46.864;15.216;2023-07-28T18:01:37;22.30;99.90
1678;DHT22;6034;46.864;15.216;2023-07-28T18:04:05;22.10;99.90
1678;DHT22;6034;46.864;15.216;2023-07-28T18:06:32;21.90;99.90
1678;DHT22;6034;46.864;15.216;2023-07-28T18:09:00;21.90;99.90
1678;DHT22;6034;46.864;15.216;2023-07-28T18:11:29;21.90;99.90
1678;DHT22;6034;46.864;15.216;2023-07-28T18:13:57;21.90;99.90
1678;DHT22;6034;46.864;15.216;2023-07-28T18:16:26;21.80;99.90
1678;DHT22;6034;46.864;15.216;2023-07-28T18:18:56;21.80;99.90
1678;DHT22;6034;46.864;15.216;2023-07-28T18:21:27;21.80;99.90
1678;DHT22;6034;46.864;15.216;2023-07-28T18:23:55;21.70;99.90
1678;DHT22;6034;46.864;15.216;2023-07-28T18:26:23;21.80;99.90
1678;DHT22;6034;46.864;15.216;2023-07-28T18:28:52;21.70;99.90
1678;DHT22;6034;46.864;15.216;2023-07-28T18:31:22;21.60;99.90
1678;DHT22;6034;46.864;15.216;2023-07-28T18:33:50;21.70;99.90
1678;DHT22;6034;46.864;15.216;2023-07-28T18:36:20;21.80;99.90
1678;DHT22;6034;46.864;15.216;2023-07-28T18:38:49;21.80;99.90
1678;DHT22;6034;46.864;15.216;2023-07-28T18:41:17;21.80;99.90
1678;DHT22;6034;46.864;15.216;2023-07-28T18:43:45;21.80;99.90
1678;DHT22;6034;46.864;15.216;2023-07-28T18:46:13;21.90;99.90
1678;DHT22;6034;46.864;15.216;2023-07-28T18:48:42;21.90;99.90
1678;DHT22;6034;46.864;15.216;2023-07-28T18:51:10;21.90;99.90
1678;DHT22;6034;46.864;15.216;2023-07-28T18:53:39;21.90;99.90
1678;DHT22;6034;46.864;15.216;2023-07-28T18:56:10;21.90;99.90
1678;DHT22;6034;46.864;15.216;2023-07-28T18:58:37;22.00;99.90
1678;DHT22;6034;46.864;15.216;2023-07-28T19:01:08;21.90;99.90
1678;DHT22;6034;46.864;15.216;2023-07-28T19:03:36;22.00;99.90
1678;DHT22;6034;46.864;15.216;2023-07-28T19:06:05;22.00;99.90
1678;DHT22;6034;46.864;15.216;2023-07-28T19:08:33;22.10;99.90
1678;DHT22;6034;46.864;15.216;2023-07-28T19:11:04;22.00;99.90
1678;DHT22;6034;46.864;15.216;2023-07-28T19:13:33;21.90;99.90
1678;DHT22;6034;46.864;15.216;2023-07-28T19:16:02;22.00;99.90
1678;DHT22;6034;46.864;15.216;2023-07-28T19:18:30;22.00;99.90
1678;DHT22;6034;46.864;15.216;2023-07-28T19:20:58;21.90;99.90
1678;DHT22;6034;46.864;15.216;2023-07-28T19:23:26;21.90;99.90
1678;DHT22;6034;46.864;15.216;2023-07-28T19:25:55;21.90;99.90
1678;DHT22;6034;46.864;15.216;2023-07-28T19:28:25;21.90;99.90
1678;DHT22;6034;46.864;15.216;2023-07-28T19:30:53;21.90;99.90
1678;DHT22;6034;46.864;15.216;2023-07-28T19:33:26;21.90;99.90
1678;DHT22;6034;46.864;15.216;2023-07-28T19:35:54;21.90;99.90
1678;DHT22;6034;46.864;15.216;2023-07-28T19:38:23;21.90;99.90
1678;DHT22;6034;46.864;15.216;2023-07-28T19:40:51;21.90;99.90
1678;DHT22;6034;46.864;15.216;2023-07-28T19:43:19;21.90;99.90
1678;DHT22;6034;46.864;15.216;2023-07-28T19:45:51;21.80;99.90
1678;DHT22;6034;46.864;15.216;2023-07-28T19:48:21;21.80;99.90
1678;DHT22;6034;46.864;15.216;2023-07-28T19:50:51;21.80;99.90
1678;DHT22;6034;46.864;15.216;2023-07-28T19:53:20;21.80;99.90
1678;DHT22;6034;46.864;15.216;2023-07-28T19:55:49;21.90;99.90
1678;DHT22;6034;46.864;15.216;2023-07-28T19:58:18;21.80;99.90
1678;DHT22;6034;46.864;15.216;2023-07-28T20:00:50;21.90;99.90
1678;DHT22;6034;46.864;15.216;2023-07-28T20:03:20;21.90;99.90
1678;DHT22;6034;46.864;15.216;2023-07-28T20:05:48;21.90;99.90
1678;DHT22;6034;46.864;15.216;2023-07-28T20:08:16;21.90;99.90
1678;DHT22;6034;46.864;15.216;2023-07-28T20:10:45;21.90;99.90
1678;DHT22;6034;46.864;15.216;2023-07-28T20:13:13;22.00;99.90
1678;DHT22;6034;46.864;15.216;2023-07-28T20:15:43;21.90;99.90
1678;DHT22;6034;46.864;15.216;2023-07-28T20:18:16;21.90;99.90
1678;DHT22;6034;46.864;15.216;2023-07-28T20:20:44;21.90;99.90
1678;DHT22;6034;46.864;15.216;2023-07-28T20:23:13;21.90;99.90
1678;DHT22;6034;46.864;15.216;2023-07-28T20:25:41;21.90;99.90
1678;DHT22;6034;46.864;15.216;2023-07-28T20:28:09;21.90;99.90
1678;DHT22;6034;46.864;15.216;2023-07-28T20:30:39;21.90;99.90
1678;DHT22;6034;46.864;15.216;2023-07-28T20:33:06;21.80;99.90